createdAt,value
2019-04-03T00:02:06.586Z,9.66
2019-04-03T00:07:06.756Z,9.67
2019-04-03T00:12:06.383Z,9.71
2019-04-03T00:17:06.556Z,9.79
2019-04-03T00:22:06.818Z,9.79
2019-04-03T00:26:07.989Z,9.96
2019-04-03T00:31:07.215Z,9.78
2019-04-03T00:36:07.418Z,9.55
2019-04-03T00:41:07.030Z,9.53
2019-04-03T00:46:07.124Z,9.64
2019-04-03T00:51:07.490Z,9.53
2019-04-03T00:56:07.851Z,9.48
2019-04-03T01:00:09.517Z,9.59
2019-04-03T01:05:11.384Z,9.71
2019-04-03T01:10:08.488Z,9.69
2019-04-03T01:15:08.784Z,9.62
2019-04-03T01:20:08.110Z,9.48
2019-04-03T01:25:10.150Z,9.44
2019-04-03T01:30:08.614Z,9.37
2019-04-03T01:34:06.739Z,9.22
2019-04-03T01:39:07.322Z,9.21
2019-04-03T01:44:06.787Z,8.85
2019-04-03T01:49:06.941Z,8.68
2019-04-03T01:54:06.476Z,9.23
2019-04-03T01:59:07.701Z,9.41
2019-04-03T02:04:06.946Z,9.63
2019-04-03T02:08:06.703Z,9.47
2019-04-03T02:13:06.711Z,9.47
2019-04-03T02:18:07.183Z,9.53
2019-04-03T02:23:06.497Z,9.51
2019-04-03T02:28:06.816Z,9.47
2019-04-03T02:33:07.164Z,9.32
2019-04-03T02:38:06.476Z,9.36
2019-04-03T02:42:10.013Z,9.02
2019-04-03T02:47:07.358Z,8.49
2019-04-03T02:52:06.990Z,7.99
2019-04-03T02:57:06.465Z,7.96
2019-04-03T03:02:11.233Z,7.92
2019-04-03T03:07:06.808Z,7.82
2019-04-03T03:12:06.676Z,7.29
2019-04-03T03:16:06.845Z,7.08
2019-04-03T03:21:06.720Z,7.5
2019-04-03T03:26:06.722Z,7.97
2019-04-03T03:31:08.483Z,7.98
2019-04-03T03:36:08.312Z,7.85
2019-04-03T03:41:06.798Z,8.07
2019-04-03T03:46:07.744Z,8.16
2019-04-03T03:50:06.601Z,8.08
2019-04-03T03:55:07.520Z,7.94
2019-04-03T04:00:08.241Z,7.92
2019-04-03T04:05:13.218Z,7.88
2019-04-03T04:10:07.402Z,7.76
2019-04-03T04:15:09.651Z,7.83
2019-04-03T04:20:07.847Z,8
2019-04-03T04:24:07.087Z,8.06
2019-04-03T04:29:11.858Z,8.08
2019-04-03T04:34:07.365Z,8.04
2019-04-03T04:39:08.005Z,7.9
2019-04-03T04:44:13.874Z,7.82
2019-04-03T04:49:07.428Z,7.69
2019-04-03T04:54:07.879Z,7.64
2019-04-03T04:59:07.005Z,7.69
2019-04-03T05:03:07.131Z,7.59
2019-04-03T05:08:07.518Z,7.54
2019-04-03T05:13:07.233Z,7.55
2019-04-03T05:18:07.375Z,7.63
2019-04-03T05:23:07.460Z,7.78
2019-04-03T05:28:07.573Z,7.93
2019-04-03T05:33:11.144Z,8.21
2019-04-03T05:37:06.188Z,8.39
2019-04-03T05:42:07.091Z,8.56
2019-04-03T05:47:09.447Z,8.47
2019-04-03T05:52:07.653Z,8.37
2019-04-03T05:57:08.012Z,8.45
2019-04-03T06:02:19.890Z,8.44
2019-04-03T06:07:07.208Z,8.82
2019-04-03T06:12:09.745Z,9.22
2019-04-03T06:16:07.678Z,9.46
2019-04-03T06:17:06.539Z,9.46
2019-04-03T06:21:07.242Z,10.06
2019-04-03T06:26:08.325Z,10.37
2019-04-03T06:31:09.907Z,10.79
2019-04-03T06:36:07.378Z,11.17
2019-04-03T06:41:09.992Z,11.44
2019-04-03T06:46:07.947Z,11.91
2019-04-03T06:51:07.057Z,11.76
2019-04-03T06:55:06.996Z,12.21
2019-04-03T06:56:09.841Z,12.21
2019-04-03T07:00:09.368Z,12.37
2019-04-03T07:05:11.417Z,12.2
2019-04-03T07:10:25.972Z,12.94
2019-04-03T07:15:09.118Z,13.49
2019-04-03T07:20:21.263Z,13.41
2019-04-03T07:25:07.351Z,13.7
2019-04-03T07:30:09.288Z,13.96
2019-04-03T07:34:06.767Z,14.19
2019-04-03T07:39:09.756Z,14.48
2019-04-03T07:44:06.765Z,14.2
2019-04-03T07:49:06.749Z,15.61
2019-04-03T07:54:06.092Z,15.75
2019-04-03T07:59:06.936Z,15.45
2019-04-03T08:04:06.540Z,16.29
2019-04-03T08:08:06.808Z,16.74
2019-04-03T08:13:06.563Z,16.9
2019-04-03T08:18:06.403Z,16.98
2019-04-03T08:23:06.248Z,17.23
2019-04-03T08:28:06.312Z,15.27
2019-04-03T08:33:15.647Z,15.7
2019-04-03T08:37:11.152Z,15.31
2019-04-03T08:42:07.300Z,14.83
2019-04-03T08:47:08.193Z,14.78
2019-04-03T08:52:07.724Z,14.36
2019-04-03T08:57:06.986Z,14.1
2019-04-03T09:02:07.847Z,13.97
2019-04-03T09:07:06.463Z,14
2019-04-03T09:11:08.224Z,14.17
2019-04-03T09:16:11.004Z,13.9
2019-04-03T09:21:07.500Z,13.84
2019-04-03T09:26:07.899Z,14.77
2019-04-03T09:31:07.345Z,15.81
2019-04-03T09:36:07.445Z,15.31
2019-04-03T09:41:07.310Z,15.39
2019-04-03T09:46:07.665Z,16.31
2019-04-03T09:50:06.758Z,16.24
2019-04-03T09:55:07.271Z,16.22
2019-04-03T10:00:12.541Z,16.22
2019-04-03T10:05:07.785Z,16.45
2019-04-03T10:10:07.731Z,18.13
2019-04-03T10:15:08.442Z,18.21
2019-04-03T10:20:07.745Z,18.39
2019-04-03T10:24:07.018Z,18.76
2019-04-03T10:29:07.376Z,18.49
2019-04-03T10:34:06.469Z,17.98
2019-04-03T10:39:07.283Z,17.95
2019-04-03T10:44:09.818Z,17.22
2019-04-03T10:49:06.536Z,17.38
2019-04-03T10:54:06.936Z,16.31
2019-04-03T10:58:07.090Z,15.95
2019-04-03T11:03:07.295Z,16.81
2019-04-03T11:08:06.869Z,17.39
2019-04-03T11:13:07.167Z,17.6
2019-04-03T11:18:07.347Z,17.22
2019-04-03T11:23:08.962Z,16.54
2019-04-03T11:28:07.224Z,16.76
2019-04-03T11:32:08.774Z,16.54
2019-04-03T11:37:06.417Z,16.18
2019-04-03T11:42:05.985Z,16.44
2019-04-03T11:47:06.815Z,16.79
2019-04-03T11:52:06.533Z,16.85
2019-04-03T11:57:06.843Z,16.43
2019-04-03T12:02:08.868Z,16.36
2019-04-03T12:06:06.757Z,16.41
2019-04-03T12:11:07.439Z,16.63
2019-04-03T12:16:06.779Z,16.91
2019-04-03T12:21:06.216Z,16.9
2019-04-03T12:26:05.968Z,16.72
2019-04-03T12:31:06.502Z,16.75
2019-04-03T12:36:07.289Z,16.67
2019-04-03T12:41:06.916Z,17.29
2019-04-03T12:45:08.461Z,18.77
2019-04-03T12:46:06.644Z,18.77
2019-04-03T12:50:07.588Z,19.91
2019-04-03T12:55:07.134Z,18.8
2019-04-03T13:00:12.665Z,18.52
2019-04-03T13:05:07.864Z,18.97
2019-04-03T13:10:08.486Z,19.36
2019-04-03T13:15:07.412Z,19.24
2019-04-03T13:20:06.968Z,20.72
2019-04-03T13:24:06.634Z,19.6
2019-04-03T13:29:10.172Z,19.84
2019-04-03T13:34:10.408Z,20.44
2019-04-03T13:39:08.556Z,21.3
2019-04-03T13:44:06.577Z,18.61
2019-04-03T13:49:07.463Z,19.89
2019-04-03T13:54:08.566Z,20.78
2019-04-03T13:58:06.993Z,20.48
2019-04-03T14:03:07.313Z,21.14
2019-04-03T14:08:08.946Z,21.44
2019-04-03T14:13:08.969Z,21.06
2019-04-03T14:18:10.026Z,20.27
2019-04-03T14:23:06.991Z,20.11
2019-04-03T14:28:07.588Z,19.69
2019-04-03T14:32:07.230Z,19.68
2019-04-03T14:37:06.654Z,20.05
2019-04-03T14:42:08.521Z,19.57
2019-04-03T14:47:06.709Z,20.02
2019-04-03T14:52:07.339Z,19.79
2019-04-03T14:57:24.440Z,20.05
2019-04-03T15:02:07.304Z,19.92
2019-04-03T15:06:07.231Z,20.2
2019-04-03T15:11:07.057Z,19.98
2019-04-03T15:16:07.076Z,19.28
2019-04-03T15:21:08.106Z,19.75
2019-04-03T15:26:06.619Z,19.56
2019-04-03T15:31:07.727Z,20.34
2019-04-03T15:36:06.702Z,20.04
2019-04-03T15:40:07.339Z,19.15
2019-04-03T15:45:08.833Z,19.83
2019-04-03T15:50:07.414Z,19.26
2019-04-03T15:55:07.338Z,19.67
2019-04-03T16:00:10.113Z,19.5
2019-04-03T16:05:07.410Z,19.87
2019-04-03T16:10:07.539Z,19.68
2019-04-03T16:14:06.252Z,19.1
2019-04-03T16:20:07.374Z,18.84
2019-04-03T16:24:13.407Z,18.83
2019-04-03T16:29:08.857Z,18.44
2019-04-03T16:34:12.240Z,19.27
2019-04-03T16:39:07.362Z,19.36
2019-04-03T16:44:07.136Z,19.08
2019-04-03T16:49:07.920Z,18.39
2019-04-03T16:53:09.501Z,17.96
2019-04-03T16:58:07.082Z,17.74
2019-04-03T17:03:07.305Z,17.56
2019-04-03T17:08:06.842Z,17.43
2019-04-03T17:13:06.756Z,17.24
2019-04-03T17:18:06.612Z,17.14
2019-04-03T17:22:09.438Z,16.91
2019-04-03T17:27:07.339Z,16.84
2019-04-03T17:32:10.363Z,16.75
2019-04-03T17:37:07.052Z,16.55
2019-04-03T17:42:09.154Z,16.39
2019-04-03T17:47:06.375Z,16.19
2019-04-03T17:52:06.583Z,15.99
2019-04-03T17:57:06.834Z,15.88
2019-04-03T18:01:06.755Z,15.6
2019-04-03T18:06:06.911Z,15.07
2019-04-03T18:11:06.768Z,14.92
2019-04-03T18:16:07.438Z,14.56
2019-04-03T18:21:07.043Z,14.24
2019-04-03T18:26:06.251Z,13.98
2019-04-03T18:31:07.014Z,14.13
2019-04-03T18:35:07.704Z,14.19
2019-04-03T18:40:06.433Z,14.14
2019-04-03T18:45:07.913Z,13.93
2019-04-03T18:50:10.510Z,13.7
2019-04-03T18:55:06.889Z,13.56
2019-04-03T19:00:09.718Z,13.48
2019-04-03T19:04:07.685Z,13.36
2019-04-03T19:10:08.254Z,13.3
2019-04-03T19:14:06.643Z,13.22
2019-04-03T19:19:09.353Z,12.93
2019-04-03T19:24:06.998Z,12.73
2019-04-03T19:29:07.888Z,12.51
2019-04-03T19:34:06.499Z,12.47
2019-04-03T19:39:08.350Z,13.05
2019-04-03T19:44:07.562Z,13.21
2019-04-03T19:48:07.000Z,13.09
2019-04-03T19:58:06.388Z,12.86
2019-04-03T20:03:07.936Z,13
2019-04-03T20:08:07.199Z,13.23
2019-04-03T20:13:09.969Z,13.01
2019-04-03T20:18:06.918Z,13.01
2019-04-03T20:22:06.917Z,13.16
2019-04-03T20:27:06.687Z,13.36
2019-04-03T20:32:06.999Z,13.33
2019-04-03T20:37:06.705Z,13.1
2019-04-03T20:42:07.976Z,13.08
2019-04-03T20:47:06.075Z,13.12
2019-04-03T20:52:06.313Z,13
2019-04-03T20:56:07.864Z,12.7
2019-04-03T21:01:07.035Z,12.48
2019-04-03T21:06:06.352Z,12.38
2019-04-03T21:11:05.970Z,12.82
2019-04-03T21:16:06.798Z,12.87
2019-04-03T21:21:06.060Z,13.09
2019-04-03T21:26:07.235Z,12.81
2019-04-03T21:30:09.631Z,12.65
2019-04-03T21:31:06.016Z,12.65
2019-04-03T21:35:07.397Z,12.56
2019-04-03T21:40:07.100Z,12.3
2019-04-03T21:45:09.210Z,12.12
2019-04-03T21:50:07.315Z,11.96
2019-04-03T21:55:07.542Z,12.01
2019-04-03T22:00:08.936Z,11.94
2019-04-03T22:05:07.264Z,12.13
2019-04-03T22:10:10.083Z,12.27
2019-04-03T22:14:06.777Z,12.17
2019-04-03T22:19:07.240Z,12.11
2019-04-03T22:24:07.510Z,12.02
2019-04-03T22:29:06.958Z,11.96
2019-04-03T22:34:07.076Z,11.87
2019-04-03T22:39:09.421Z,11.76
2019-04-03T22:44:07.646Z,11.75
2019-04-03T22:49:07.640Z,11.53
2019-04-03T22:54:07.895Z,11.68
2019-04-03T22:59:07.000Z,11.77
2019-04-03T23:03:07.040Z,11.74
2019-04-03T23:08:07.262Z,11.6
2019-04-03T23:13:07.759Z,11.57
2019-04-03T23:18:07.524Z,11.44
2019-04-03T23:23:07.615Z,11.14
2019-04-03T23:28:07.734Z,11
2019-04-03T23:33:07.778Z,10.85
2019-04-03T23:37:06.810Z,10.85
2019-04-03T23:42:07.746Z,10.84
2019-04-03T23:47:07.080Z,10.77
2019-04-03T23:52:06.363Z,10.89
2019-04-03T23:57:06.416Z,10.8
